Time;durP1;ratioP1;P1;durP2;ratioP2;P2;SDS_P1;SDS_P2;PMS_P1;PMS_P2;Temp;Humidity;BMP_temperature;BMP_pressure;BME280_temperature;BME280_humidity;BME280_pressure;Samples;Min_cycle;Max_cycle;Signal;HPM_P1;HPM_P2
2022/05/30 00:00:17;;;;;;;9.40;1.52;;;7.80;99.90;;;;;;5072366;28;20047;-80
2022/05/30 00:02:43;;;;;;;8.48;1.63;;;7.70;99.90;;;;;;5073222;28;20131;-80
2022/05/30 00:05:10;;;;;;;6.15;1.83;;;7.70;99.90;;;;;;5056584;28;20123;-80
2022/05/30 00:07:37;;;;;;;10.45;2.00;;;7.70;99.90;;;;;;5073839;28;20070;-80
2022/05/30 00:10:03;;;;;;;8.65;2.13;;;7.70;99.90;;;;;;5080239;28;20052;-80
2022/05/30 00:12:30;;;;;;;8.00;1.33;;;7.60;99.90;;;;;;5094153;28;20040;-80
2022/05/30 00:14:55;;;;;;;7.90;1.67;;;7.60;99.90;;;;;;5062877;28;20049;-80
2022/05/30 00:17:21;;;;;;;3.85;1.27;;;7.60;99.90;;;;;;5053281;28;20048;-80
2022/05/30 00:19:47;;;;;;;5.43;1.30;;;7.50;99.90;;;;;;5068892;28;20052;-80
2022/05/30 00:22:14;;;;;;;6.22;1.20;;;7.50;99.90;;;;;;5054577;28;20187;-80
2022/05/30 00:24:41;;;;;;;7.97;1.48;;;7.50;99.90;;;;;;5059242;28;20127;-80
2022/05/30 00:27:08;;;;;;;5.78;1.30;;;7.40;99.90;;;;;;5072216;28;20045;-80
2022/05/30 00:29:34;;;;;;;6.03;1.00;;;7.40;99.90;;;;;;5055921;28;20048;-80
2022/05/30 00:32:00;;;;;;;3.47;1.05;;;7.40;99.90;;;;;;5056105;28;20476;-80
2022/05/30 00:34:27;;;;;;;6.05;1.40;;;7.30;99.90;;;;;;5071497;28;20049;-80
2022/05/30 00:36:53;;;;;;;5.20;1.48;;;7.30;99.90;;;;;;5072724;28;20037;-80
2022/05/30 00:39:19;;;;;;;6.38;1.63;;;7.30;99.90;;;;;;5061066;28;20052;-80
2022/05/30 00:41:45;;;;;;;3.60;1.23;;;7.30;99.90;;;;;;5092178;28;20044;-80
2022/05/30 00:44:12;;;;;;;7.18;1.30;;;7.30;99.90;;;;;;5078516;28;20055;-80
2022/05/30 00:46:39;;;;;;;6.28;1.35;;;7.30;99.90;;;;;;5074025;28;20123;-80
2022/05/30 00:49:08;;;;;;;5.38;1.20;;;7.30;99.90;;;;;;5071175;28;20055;-80
2022/05/30 00:51:45;;;;;;;3.50;1.38;;;7.30;99.90;;;;;;5089746;28;20044;-80
2022/05/30 00:54:15;;;;;;;5.20;1.52;;;7.30;99.90;;;;;;5079853;28;20072;-80
2022/05/30 00:56:49;;;;;;;3.08;0.98;;;7.30;99.90;;;;;;5093411;28;20036;-80
2022/05/30 00:59:15;;;;;;;5.82;1.50;;;7.30;99.90;;;;;;5081279;28;20045;-81
2022/05/30 01:01:41;;;;;;;7.55;3.08;;;7.40;99.90;;;;;;5073084;28;20444;-81
2022/05/30 01:06:58;;;;;;;4.05;1.15;;;7.40;99.90;;;;;;5089948;28;20056;-80
2022/05/30 01:09:33;;;;;;;4.07;1.00;;;7.50;99.90;;;;;;5079914;28;20060;-81
2022/05/30 01:12:05;;;;;;;2.63;0.90;;;7.50;99.90;;;;;;5075777;28;20050;-81
2022/05/30 01:14:35;;;;;;;4.95;1.30;;;7.50;99.90;;;;;;5079498;28;20045;-80
2022/05/30 01:17:02;;;;;;;6.45;1.48;;;7.50;99.90;;;;;;5068112;28;20048;-81
2022/05/30 01:19:47;;;;;;;5.55;1.00;;;7.60;99.90;;;;;;5053520;28;20049;-81
2022/05/30 01:22:48;;;;;;;4.65;1.30;;;7.60;99.90;;;;;;5057486;28;20436;-81
2022/05/30 01:25:48;;;;;;;5.45;1.45;;;7.60;99.90;;;;;;5033645;28;20132;-81
2022/05/30 01:28:32;;;;;;;3.42;0.88;;;7.60;99.90;;;;;;5064988;28;20446;-81
2022/05/30 01:30:57;;;;;;;2.83;0.80;;;7.60;99.90;;;;;;5071227;28;20044;-81
2022/05/30 01:33:24;;;;;;;5.13;1.02;;;7.60;99.90;;;;;;5070918;28;20119;-81
2022/05/30 01:35:50;;;;;;;4.10;1.52;;;7.60;99.90;;;;;;5073521;28;20055;-81
2022/05/30 01:38:15;;;;;;;5.35;1.10;;;7.50;99.90;;;;;;5076894;28;20032;-81
2022/05/30 01:40:41;;;;;;;11.25;1.45;;;7.50;99.90;;;;;;5088526;28;20055;-81
2022/05/30 01:43:07;;;;;;;4.28;0.95;;;7.40;99.90;;;;;;5070625;28;20476;-81
2022/05/30 01:45:33;;;;;;;5.05;1.05;;;7.40;99.90;;;;;;5071033;28;20040;-81
2022/05/30 01:47:58;;;;;;;1.67;0.80;;;7.30;99.90;;;;;;5050400;28;20488;-81
2022/05/30 01:50:27;;;;;;;6.97;1.20;;;7.30;99.90;;;;;;5061834;28;20048;-81
2022/05/30 01:52:53;;;;;;;6.53;1.20;;;7.20;99.90;;;;;;5071643;28;20403;-81
2022/05/30 01:55:19;;;;;;;3.90;1.20;;;7.20;99.90;;;;;;5055704;28;20094;-81
2022/05/30 01:57:44;;;;;;;6.13;0.95;;;7.20;99.90;;;;;;5089096;28;20472;-81
2022/05/30 02:00:11;;;;;;;2.13;1.00;;;7.10;99.90;;;;;;5063977;28;20384;-81
2022/05/30 02:02:38;;;;;;;9.70;1.35;;;7.10;99.90;;;;;;5072187;28;20055;-81
2022/05/30 02:05:06;;;;;;;6.70;1.27;;;7.00;99.90;;;;;;5053738;28;20414;-81
2022/05/30 02:07:32;;;;;;;3.33;1.02;;;7.00;99.90;;;;;;5079810;28;20491;-82
2022/05/30 02:09:57;;;;;;;4.78;1.10;;;6.90;99.90;;;;;;5083903;28;20045;-81
2022/05/30 02:12:23;;;;;;;2.47;1.00;;;6.90;99.90;;;;;;5070995;28;20472;-81
2022/05/30 02:14:49;;;;;;;4.90;1.95;;;6.90;99.90;;;;;;5088046;28;20055;-81
2022/05/30 02:17:15;;;;;;;3.50;0.80;;;6.90;99.90;;;;;;5072971;28;20055;-81
2022/05/30 02:19:44;;;;;;;2.13;0.90;;;6.90;99.90;;;;;;5084367;28;20044;-81
2022/05/30 02:22:18;;;;;;;4.47;1.13;;;6.90;99.90;;;;;;5060505;28;20028;-81
2022/05/30 02:24:44;;;;;;;6.55;0.90;;;6.90;99.90;;;;;;5072646;28;20483;-81
2022/05/30 02:27:12;;;;;;;3.80;1.05;;;6.80;99.90;;;;;;5070848;28;20062;-81
2022/05/30 02:29:38;;;;;;;8.40;1.33;;;6.80;99.90;;;;;;5071019;28;20080;-81
2022/05/30 02:32:05;;;;;;;3.95;0.95;;;6.70;99.90;;;;;;5071564;28;20052;-81
2022/05/30 02:37:16;;;;;;;5.22;0.80;;;6.70;99.90;;;;;;5097344;28;20051;-81
2022/05/30 02:39:42;;;;;;;1.63;0.80;;;6.60;99.90;;;;;;5059857;28;20052;-81
2022/05/30 02:42:08;;;;;;;3.85;0.90;;;6.60;99.90;;;;;;5071916;28;20067;-81
2022/05/30 02:44:34;;;;;;;6.53;1.52;;;6.60;99.90;;;;;;5073955;28;20056;-81
2022/05/30 02:47:00;;;;;;;6.90;1.23;;;6.60;99.90;;;;;;5076323;28;20044;-81
2022/05/30 02:49:27;;;;;;;4.65;1.17;;;6.60;99.90;;;;;;5073490;28;20049;-81
2022/05/30 02:51:54;;;;;;;4.95;1.20;;;6.60;99.90;;;;;;5083995;28;20090;-81
2022/05/30 02:54:20;;;;;;;3.42;0.73;;;6.60;99.90;;;;;;5084969;28;20087;-81
2022/05/30 02:56:54;;;;;;;3.00;1.00;;;6.60;99.90;;;;;;5074914;28;20483;-81
2022/05/30 02:59:20;;;;;;;4.15;1.20;;;6.60;99.90;;;;;;5075579;28;20091;-81
2022/05/30 03:01:46;;;;;;;3.65;1.10;;;6.60;99.90;;;;;;5075298;28;20040;-82
2022/05/30 03:04:13;;;;;;;4.90;1.10;;;6.60;99.90;;;;;;5074258;28;20033;-81
2022/05/30 03:06:39;;;;;;;6.82;1.35;;;6.60;99.90;;;;;;5082127;28;20052;-82
2022/05/30 03:09:05;;;;;;;6.30;1.25;;;6.60;99.90;;;;;;5080885;28;20055;-81
2022/05/30 03:11:32;;;;;;;12.05;1.40;;;6.60;99.90;;;;;;5075999;28;20036;-81
2022/05/30 03:13:58;;;;;;;6.18;1.38;;;6.60;99.90;;;;;;5070979;28;20456;-81
2022/05/30 03:16:24;;;;;;;8.55;1.38;;;6.60;99.90;;;;;;5053872;28;20396;-81
2022/05/30 03:18:50;;;;;;;6.45;1.58;;;6.60;99.90;;;;;;5073409;28;20056;-81
2022/05/30 03:21:16;;;;;;;6.45;1.50;;;6.70;99.90;;;;;;5052695;28;20037;-81
2022/05/30 03:23:42;;;;;;;3.05;1.20;;;6.70;99.90;;;;;;5073424;28;20494;-81
2022/05/30 03:26:08;;;;;;;5.18;1.63;;;6.70;99.90;;;;;;5057984;28;20045;-81
2022/05/30 03:28:35;;;;;;;7.15;1.48;;;6.80;99.90;;;;;;5073600;28;20063;-81
2022/05/30 03:31:03;;;;;;;6.40;1.80;;;6.80;99.90;;;;;;5074577;28;20070;-81
2022/05/30 03:33:29;;;;;;;5.78;1.67;;;6.80;99.90;;;;;;5073968;28;20460;-81
2022/05/30 03:35:55;;;;;;;4.65;1.77;;;6.80;99.90;;;;;;5072329;28;20422;-81
2022/05/30 03:38:21;;;;;;;5.07;1.00;;;6.90;99.90;;;;;;5065039;28;20428;-81
2022/05/30 03:40:47;;;;;;;3.25;0.60;;;6.90;99.90;;;;;;5077408;28;20040;-81
2022/05/30 03:43:13;;;;;;;7.47;1.85;;;6.90;99.90;;;;;;5074577;28;20044;-81
2022/05/30 03:45:43;;;;;;;7.40;0.90;;;6.80;99.90;;;;;;5090137;28;20040;-81
2022/05/30 03:48:12;;;;;;;3.63;1.02;;;6.90;99.90;;;;;;5073035;28;20487;-81
2022/05/30 03:50:39;;;;;;;6.07;1.33;;;6.80;99.90;;;;;;5074375;28;20076;-81
2022/05/30 03:53:06;;;;;;;6.93;1.48;;;6.80;99.90;;;;;;5078469;28;20039;-81
2022/05/30 03:55:39;;;;;;;6.35;1.40;;;6.80;99.90;;;;;;5093523;28;20044;-81
2022/05/30 03:58:09;;;;;;;4.95;1.83;;;6.90;99.90;;;;;;5069333;28;20780;-81
2022/05/30 04:00:35;;;;;;;7.47;2.00;;;6.80;99.90;;;;;;5056895;28;20102;-81
2022/05/30 04:03:02;;;;;;;3.33;1.38;;;6.80;99.90;;;;;;5074374;28;20041;-81
2022/05/30 04:05:28;;;;;;;5.55;1.90;;;6.80;99.90;;;;;;5073926;28;20480;-81
2022/05/30 04:07:53;;;;;;;6.03;1.48;;;6.80;99.90;;;;;;5078292;28;20056;-81
2022/05/30 04:10:20;;;;;;;4.45;1.27;;;6.80;99.90;;;;;;5094899;28;20403;-81
2022/05/30 04:12:45;;;;;;;4.90;1.30;;;6.80;99.90;;;;;;5076990;28;20480;-81
2022/05/30 04:15:19;;;;;;;12.75;2.20;;;6.80;99.90;;;;;;5073223;28;20049;-81
2022/05/30 04:17:44;;;;;;;8.02;2.28;;;6.80;99.90;;;;;;5089959;28;20097;-81
2022/05/30 04:20:11;;;;;;;8.20;2.03;;;6.80;99.90;;;;;;5072740;28;20435;-81
2022/05/30 04:22:37;;;;;;;6.40;2.30;;;6.90;99.90;;;;;;5072153;28;20034;-81
2022/05/30 04:25:03;;;;;;;5.47;2.15;;;6.90;99.90;;;;;;5110478;28;20394;-81
2022/05/30 04:27:29;;;;;;;8.77;1.90;;;6.90;99.90;;;;;;5079477;28;20491;-81
2022/05/30 04:29:55;;;;;;;8.07;2.85;;;7.00;99.90;;;;;;5072891;28;20105;-81
2022/05/30 04:32:22;;;;;;;5.38;1.88;;;7.00;99.90;;;;;;5074097;28;20037;-81
2022/05/30 04:34:48;;;;;;;5.65;2.03;;;7.10;99.90;;;;;;5072107;28;20055;-81
2022/05/30 04:37:14;;;;;;;4.80;2.85;;;7.20;99.90;;;;;;5075614;28;20040;-80
2022/05/30 04:39:40;;;;;;;6.43;2.78;;;7.20;99.90;;;;;;5075897;28;20051;-81
2022/05/30 04:42:07;;;;;;;12.73;3.92;;;7.30;99.90;;;;;;5086892;28;20036;-81
2022/05/30 04:44:33;;;;;;;12.32;2.63;;;7.40;99.90;;;;;;5072540;28;20056;-81
2022/05/30 04:46:59;;;;;;;6.70;2.67;;;7.60;99.90;;;;;;5070984;28;20041;-81
2022/05/30 04:49:26;;;;;;;8.93;2.92;;;7.60;99.90;;;;;;5036075;28;20106;-81
2022/05/30 04:51:52;;;;;;;7.35;2.50;;;7.70;99.90;;;;;;5072651;28;20051;-81
2022/05/30 04:54:19;;;;;;;9.13;2.17;;;7.80;99.90;;;;;;5109086;28;20051;-80
2022/05/30 04:56:45;;;;;;;7.85;2.35;;;8.00;99.90;;;;;;5077626;28;20113;-81
2022/05/30 04:59:11;;;;;;;7.78;2.30;;;8.10;99.90;;;;;;5072108;28;20032;-79
2022/05/30 05:01:37;;;;;;;8.77;2.65;;;8.10;99.90;;;;;;5071991;28;20476;-78
2022/05/30 05:04:08;;;;;;;6.93;2.72;;;8.20;99.90;;;;;;5071907;28;20087;-79
2022/05/30 05:06:34;;;;;;;8.85;2.67;;;8.20;99.90;;;;;;5073998;28;20622;-79
2022/05/30 05:09:15;;;;;;;5.07;2.25;;;8.30;99.90;;;;;;5070699;28;20503;-79
2022/05/30 05:11:42;;;;;;;7.47;1.90;;;8.30;99.90;;;;;;5072685;28;20044;-79
2022/05/30 05:14:08;;;;;;;4.88;1.60;;;8.40;99.90;;;;;;5070371;28;20484;-79
2022/05/30 05:16:34;;;;;;;7.90;1.90;;;8.40;99.90;;;;;;5076950;28;20384;-78
2022/05/30 05:19:01;;;;;;;7.03;1.80;;;8.50;99.90;;;;;;5090876;28;20119;-79
2022/05/30 05:21:33;;;;;;;6.47;1.50;;;8.50;99.90;;;;;;5073056;28;20047;-78
2022/05/30 05:23:59;;;;;;;7.13;1.80;;;8.50;99.90;;;;;;5071702;28;20040;-78
2022/05/30 05:26:26;;;;;;;4.43;1.63;;;8.60;99.90;;;;;;5078795;28;20052;-78
2022/05/30 05:28:52;;;;;;;5.93;2.20;;;8.70;99.90;;;;;;5108377;28;20052;-79
2022/05/30 05:31:34;;;;;;;6.47;1.92;;;8.80;99.90;;;;;;5073132;28;20442;-79
2022/05/30 05:34:03;;;;;;;7.53;1.52;;;8.90;99.90;;;;;;5062264;28;20044;-79
2022/05/30 05:36:32;;;;;;;2.05;1.27;;;8.90;99.90;;;;;;5052383;28;20485;-78
2022/05/30 05:38:58;;;;;;;3.70;1.85;;;9.00;99.90;;;;;;5063402;28;20080;-78
2022/05/30 05:41:24;;;;;;;4.93;1.63;;;9.00;99.90;;;;;;5072095;28;20041;-78
2022/05/30 05:43:53;;;;;;;3.03;1.58;;;9.00;99.90;;;;;;5072416;28;20052;-78
2022/05/30 05:46:22;;;;;;;3.83;1.33;;;9.00;99.90;;;;;;5082701;28;20040;-79
2022/05/30 05:48:48;;;;;;;4.75;1.35;;;9.10;99.90;;;;;;5086095;28;20055;-79
2022/05/30 05:51:14;;;;;;;3.85;1.45;;;9.10;99.90;;;;;;5070624;28;20047;-79
2022/05/30 05:53:41;;;;;;;4.35;1.42;;;9.20;99.90;;;;;;5073163;28;20480;-80
2022/05/30 05:56:12;;;;;;;4.28;1.20;;;9.40;99.90;;;;;;5074855;28;20438;-79
2022/05/30 05:58:37;;;;;;;2.65;1.35;;;9.50;99.90;;;;;;5061238;28;20037;-79
2022/05/30 06:01:12;;;;;;;3.78;1.33;;;9.60;99.90;;;;;;5056863;28;20105;-79
2022/05/30 06:03:37;;;;;;;6.20;1.17;;;9.70;99.90;;;;;;5093143;28;20495;-79
2022/05/30 06:06:04;;;;;;;2.08;0.80;;;9.80;99.90;;;;;;5089923;28;20048;-78
2022/05/30 06:08:31;;;;;;;2.38;0.73;;;9.90;99.90;;;;;;5055274;28;20048;-79
2022/05/30 06:11:08;;;;;;;3.40;0.70;;;10.00;99.90;;;;;;5072557;28;20052;-79
2022/05/30 06:13:46;;;;;;;2.67;0.73;;;10.10;99.90;;;;;;5071000;28;20049;-79
2022/05/30 06:16:22;;;;;;;4.10;0.80;;;10.20;99.90;;;;;;5071701;28;20396;-79
2022/05/30 06:18:50;;;;;;;2.65;0.80;;;10.30;99.90;;;;;;5074421;28;20036;-79
2022/05/30 06:21:16;;;;;;;3.25;1.08;;;10.40;99.90;;;;;;5089952;28;20137;-79
2022/05/30 06:23:45;;;;;;;3.55;0.90;;;10.40;99.90;;;;;;5075623;28;20428;-79
2022/05/30 06:26:12;;;;;;;4.47;1.33;;;10.50;99.90;;;;;;5073977;28;20539;-79
2022/05/30 06:28:39;;;;;;;3.35;0.73;;;10.50;99.90;;;;;;5075282;28;20083;-79
2022/05/30 06:31:14;;;;;;;2.40;0.52;;;10.60;99.90;;;;;;5075083;28;20523;-79
2022/05/30 06:33:40;;;;;;;4.28;0.60;;;10.70;99.90;;;;;;5071750;28;20052;-79
2022/05/30 06:36:11;;;;;;;3.50;0.70;;;10.80;99.90;;;;;;5063773;28;20044;-78
2022/05/30 06:38:37;;;;;;;3.13;0.80;;;10.80;99.90;;;;;;5067373;28;20495;-79
2022/05/30 06:41:31;;;;;;;2.95;0.60;;;10.90;99.90;;;;;;5074910;28;20102;-78
2022/05/30 06:44:04;;;;;;;6.55;1.58;;;10.90;99.90;;;;;;5075259;28;20103;-78
2022/05/30 06:46:30;;;;;;;2.80;0.60;;;10.90;99.90;;;;;;5086079;28;20633;-78
2022/05/30 06:48:56;;;;;;;3.13;0.60;;;11.00;99.90;;;;;;5095150;28;20044;-78
2022/05/30 06:51:24;;;;;;;1.17;0.40;;;11.00;99.90;;;;;;5080915;28;20044;-78
2022/05/30 06:53:50;;;;;;;4.97;0.47;;;11.00;99.90;;;;;;5077605;28;20395;-78
2022/05/30 06:56:23;;;;;;;8.38;1.15;;;11.00;99.90;;;;;;5075187;28;20123;-79
2022/05/30 06:58:53;;;;;;;3.35;0.55;;;11.10;99.90;;;;;;5073347;28;20091;-79
2022/05/30 07:01:21;;;;;;;2.22;0.57;;;11.10;99.90;;;;;;5080033;28;20047;-78
2022/05/30 07:03:47;;;;;;;4.32;0.65;;;11.20;99.90;;;;;;5075516;28;20041;-78
2022/05/30 07:06:19;;;;;;;4.10;0.50;;;11.10;99.90;;;;;;5079013;28;20434;-78
2022/05/30 07:08:46;;;;;;;0.93;0.43;;;11.20;99.90;;;;;;5074456;28;20407;-80
2022/05/30 07:11:16;;;;;;;3.55;0.63;;;11.10;99.90;;;;;;5075250;28;20045;-80
2022/05/30 07:13:42;;;;;;;3.33;0.60;;;11.00;99.90;;;;;;5073609;28;20048;-82
2022/05/30 07:16:09;;;;;;;2.08;0.52;;;10.80;99.90;;;;;;5076413;28;20040;-81
2022/05/30 07:18:35;;;;;;;1.13;0.25;;;10.70;99.90;;;;;;5090721;28;20048;-81
2022/05/30 07:21:04;;;;;;;0.57;0.20;;;10.60;99.90;;;;;;5079794;28;20046;-81
2022/05/30 07:23:32;;;;;;;2.05;0.40;;;10.50;99.90;;;;;;5090257;28;20123;-81
2022/05/30 07:25:59;;;;;;;0.80;0.40;;;10.50;99.90;;;;;;5076028;28;20368;-80
2022/05/30 07:28:29;;;;;;;1.88;0.60;;;10.50;99.90;;;;;;5073239;28;20177;-81
2022/05/30 07:31:04;;;;;;;0.47;0.32;;;10.60;99.90;;;;;;5073785;28;20053;-80
2022/05/30 07:33:30;;;;;;;1.63;0.50;;;10.60;99.90;;;;;;5074306;28;20051;-81
2022/05/30 07:35:56;;;;;;;0.60;0.32;;;10.60;99.90;;;;;;5087834;28;20395;-81
2022/05/30 07:38:22;;;;;;;1.77;0.40;;;10.60;99.90;;;;;;5075261;28;20033;-80
2022/05/30 07:40:47;;;;;;;0.85;0.30;;;10.60;99.90;;;;;;5072074;28;20047;-80
2022/05/30 07:43:14;;;;;;;0.57;0.40;;;10.70;99.90;;;;;;5053058;28;20102;-80
2022/05/30 07:45:40;;;;;;;0.60;0.40;;;10.70;99.90;;;;;;5054354;28;20492;-80
2022/05/30 07:48:07;;;;;;;1.17;0.50;;;10.90;99.90;;;;;;5076654;28;20086;-79
2022/05/30 07:50:35;;;;;;;2.67;0.43;;;11.10;99.90;;;;;;5080802;28;20037;-80
2022/05/30 07:53:01;;;;;;;2.50;0.68;;;11.20;99.90;;;;;;5074131;28;20048;-80
2022/05/30 07:55:29;;;;;;;2.80;0.68;;;11.40;99.90;;;;;;5073691;28;20048;-80
2022/05/30 07:57:56;;;;;;;4.07;0.73;;;11.60;99.90;;;;;;5073526;28;20040;-80
2022/05/30 08:00:24;;;;;;;3.20;0.80;;;11.70;99.90;;;;;;5074987;28;20446;-79
2022/05/30 08:02:51;;;;;;;1.65;0.50;;;11.80;99.90;;;;;;5056097;28;20040;-80
2022/05/30 08:05:18;;;;;;;2.13;0.50;;;11.90;99.90;;;;;;5072860;28;20036;-80
2022/05/30 08:07:45;;;;;;;1.48;0.50;;;12.00;99.90;;;;;;5077951;28;20048;-80
2022/05/30 08:10:12;;;;;;;1.85;0.63;;;12.10;99.90;;;;;;5073208;28;20052;-79
2022/05/30 08:12:38;;;;;;;5.35;0.70;;;12.20;99.90;;;;;;5073107;28;20045;-80
2022/05/30 08:15:06;;;;;;;3.70;0.88;;;12.20;99.90;;;;;;5074260;28;20052;-79
2022/05/30 08:17:32;;;;;;;1.83;0.47;;;12.20;99.90;;;;;;5077350;28;20148;-80
2022/05/30 08:19:59;;;;;;;2.60;0.40;;;12.20;99.90;;;;;;5053525;28;20076;-80
2022/05/30 08:22:25;;;;;;;3.55;0.70;;;12.20;99.90;;;;;;5063432;28;20037;-80
2022/05/30 08:24:52;;;;;;;6.00;0.93;;;12.10;99.90;;;;;;5072457;28;20041;-79
2022/05/30 08:27:19;;;;;;;2.13;0.50;;;12.00;99.90;;;;;;5067264;28;20079;-80
2022/05/30 08:29:45;;;;;;;2.05;0.55;;;11.80;99.90;;;;;;5052926;28;20056;-80
2022/05/30 08:32:12;;;;;;;5.03;0.47;;;11.70;99.90;;;;;;5060655;28;20394;-80
2022/05/30 08:34:42;;;;;;;3.08;0.70;;;11.50;99.90;;;;;;5073093;28;20472;-80
2022/05/30 08:37:09;;;;;;;1.17;0.40;;;11.40;99.90;;;;;;5056040;28;20502;-80
2022/05/30 08:42:31;;;;;;;3.35;0.50;;;11.20;99.90;;;;;;5091715;28;20048;-81
2022/05/30 08:44:57;;;;;;;5.05;0.57;;;11.10;99.90;;;;;;5071857;28;20044;-81
2022/05/30 08:47:37;;;;;;;3.10;0.75;;;11.00;99.90;;;;;;5072395;28;20037;-80
2022/05/30 08:50:13;;;;;;;1.38;0.52;;;11.10;99.90;;;;;;5071932;28;20044;-81
2022/05/30 08:52:50;;;;;;;3.03;0.60;;;11.10;99.90;;;;;;5076502;28;20104;-81
2022/05/30 08:55:44;;;;;;;4.07;0.82;;;11.10;99.90;;;;;;5073296;28;20052;-81
2022/05/30 08:58:32;;;;;;;3.25;0.70;;;11.20;99.90;;;;;;5072966;28;20072;-80
2022/05/30 09:01:07;;;;;;;1.95;0.50;;;11.40;99.90;;;;;;5072622;28;20040;-81
2022/05/30 09:03:41;;;;;;;2.95;0.85;;;11.50;99.90;;;;;;5073806;28;20041;-79
2022/05/30 09:06:12;;;;;;;1.65;0.60;;;11.70;99.90;;;;;;5071432;28;20040;-80
2022/05/30 09:08:46;;;;;;;2.17;0.60;;;11.80;99.90;;;;;;5072446;28;20468;-80
2022/05/30 09:11:24;;;;;;;2.40;0.77;;;12.00;99.90;;;;;;5073090;28;20048;-80
2022/05/30 09:13:52;;;;;;;5.50;1.35;;;12.10;99.90;;;;;;5074446;28;20037;-80
2022/05/30 09:16:29;;;;;;;3.85;0.57;;;12.30;99.90;;;;;;5089496;28;20368;-80
2022/05/30 09:18:56;;;;;;;4.55;0.70;;;12.40;99.90;;;;;;5092503;28;20135;-79
2022/05/30 09:21:24;;;;;;;2.53;0.95;;;12.50;99.90;;;;;;5053488;28;20044;-80
2022/05/30 09:23:50;;;;;;;3.78;0.77;;;12.60;99.90;;;;;;5061948;28;20090;-80
2022/05/30 09:26:28;;;;;;;2.70;0.68;;;12.70;99.90;;;;;;5072171;28;20052;-80
2022/05/30 09:29:01;;;;;;;3.10;0.60;;;12.70;99.90;;;;;;5070920;28;20056;-80
2022/05/30 09:31:36;;;;;;;4.57;0.88;;;12.70;99.90;;;;;;5080306;28;20044;-80
2022/05/30 09:34:28;;;;;;;3.83;0.57;;;12.70;99.90;;;;;;5073842;28;20454;-80
2022/05/30 09:36:53;;;;;;;6.03;1.02;;;12.70;99.90;;;;;;5068206;28;20439;-80
2022/05/30 09:39:19;;;;;;;3.22;1.08;;;12.70;99.90;;;;;;5062742;28;20051;-80
2022/05/30 09:41:57;;;;;;;3.20;0.80;;;12.80;99.90;;;;;;5072134;28;20042;-80
2022/05/30 09:44:39;;;;;;;1.17;0.60;;;12.80;99.90;;;;;;5070685;28;20514;-80
2022/05/30 09:47:13;;;;;;;6.00;0.80;;;12.90;99.90;;;;;;5088955;28;20097;-79
2022/05/30 09:49:45;;;;;;;0.50;0.50;;;12.90;99.90;;;;;;5078649;28;20454;-79
2022/05/30 09:52:37;;;;;;;1.25;0.50;;;13.00;99.90;;;;;;5076747;28;20051;-79
2022/05/30 09:55:25;;;;;;;2.40;0.65;;;13.10;99.90;;;;;;5085261;28;20049;-79
2022/05/30 09:57:52;;;;;;;3.70;0.73;;;13.10;99.90;;;;;;5065417;28;20051;-80
2022/05/30 10:00:54;;;;;;;3.75;0.60;;;13.10;99.90;;;;;;5057119;28;20059;-80
2022/05/30 10:03:28;;;;;;;6.53;1.92;;;12.90;99.90;;;;;;5070701;28;20045;-80
2022/05/30 10:06:11;;;;;;;2.30;0.70;;;12.60;99.90;;;;;;5078199;28;20047;-80
2022/05/30 10:08:40;;;;;;;4.18;0.77;;;12.30;99.90;;;;;;5087368;28;20482;-80
2022/05/30 10:11:06;;;;;;;1.67;0.65;;;12.10;99.90;;;;;;5074653;28;20071;-79
2022/05/30 10:13:37;;;;;;;3.40;1.05;;;11.90;99.90;;;;;;5075531;28;20076;-81
2022/05/30 10:16:05;;;;;;;1.25;0.60;;;11.70;99.90;;;;;;5063146;28;20055;-80
2022/05/30 10:18:37;;;;;;;2.95;0.80;;;11.60;99.90;;;;;;5054710;28;20048;-81
2022/05/30 10:21:25;;;;;;;5.55;0.80;;;11.40;99.90;;;;;;5076611;28;20514;-81
2022/05/30 10:30:22;;;;;;;5.50;1.13;;;11.00;99.90;;;;;;5055579;28;20060;-81
2022/05/30 10:33:08;;;;;;;2.53;0.90;;;10.90;99.90;;;;;;5073867;28;20048;-80
2022/05/30 10:35:53;;;;;;;4.38;1.10;;;10.90;99.90;;;;;;5055543;28;20041;-84
2022/05/30 10:38:34;;;;;;;6.25;1.08;;;10.90;99.90;;;;;;5084371;28;20036;-83
2022/05/30 10:41:26;;;;;;;2.80;0.88;;;10.90;99.90;;;;;;5082797;28;20062;-82
2022/05/30 10:44:13;;;;;;;3.08;0.88;;;10.90;99.90;;;;;;5075029;28;20048;-83
2022/05/30 10:46:49;;;;;;;5.97;1.15;;;11.00;99.90;;;;;;5074172;28;20059;-82
2022/05/30 10:49:21;;;;;;;6.85;1.25;;;11.10;99.90;;;;;;5076164;28;20057;-83
2022/05/30 10:52:16;;;;;;;2.72;0.68;;;11.10;99.90;;;;;;5069244;28;20373;-82
2022/05/30 10:55:05;;;;;;;3.23;0.90;;;11.30;99.90;;;;;;5053978;28;20056;-83
2022/05/30 10:57:56;;;;;;;4.53;0.70;;;11.50;99.90;;;;;;5074171;28;20364;-82
2022/05/30 11:00:26;;;;;;;1.90;0.70;;;11.60;99.90;;;;;;5095364;28;20048;-83
2022/05/30 11:03:18;;;;;;;3.55;0.90;;;11.80;99.90;;;;;;5096398;28;20043;-82
2022/05/30 11:06:01;;;;;;;4.28;0.88;;;11.90;99.90;;;;;;5093856;28;20478;-82
2022/05/30 11:08:49;;;;;;;3.17;0.95;;;12.10;99.90;;;;;;5093923;28;20172;-81
2022/05/30 11:11:30;;;;;;;3.63;0.68;;;12.20;99.90;;;;;;5077385;28;20469;-81
2022/05/30 11:14:04;;;;;;;4.28;0.60;;;12.40;99.90;;;;;;5073842;28;20055;-82
2022/05/30 11:17:05;;;;;;;4.65;1.23;;;12.50;99.90;;;;;;5074822;28;20040;-80
2022/05/30 11:19:49;;;;;;;4.70;0.90;;;12.60;99.90;;;;;;5074705;28;20131;-82
2022/05/30 11:22:24;;;;;;;1.02;0.55;;;12.60;99.90;;;;;;5074793;28;20127;-81
2022/05/30 11:24:52;;;;;;;1.45;0.75;;;12.70;99.90;;;;;;5075743;28;20048;-81
2022/05/30 11:27:43;;;;;;;0.98;0.50;;;12.80;99.90;;;;;;5081313;28;20047;-81
2022/05/30 11:30:25;;;;;;;2.35;0.63;;;12.90;99.90;;;;;;5094357;28;20044;-81
2022/05/30 11:33:03;;;;;;;2.75;0.60;;;13.00;99.90;;;;;;5077569;28;20075;-81
2022/05/30 11:35:37;;;;;;;3.78;0.90;;;13.20;99.90;;;;;;5094848;28;20130;-81
2022/05/30 11:38:33;;;;;;;1.97;0.53;;;13.20;99.90;;;;;;5094476;28;20391;-81
2022/05/30 11:41:38;;;;;;;0.60;0.47;;;13.30;99.90;;;;;;5094167;28;20351;-82
2022/05/30 11:44:23;;;;;;;0.47;0.30;;;13.30;99.90;;;;;;5075088;28;20123;-81
2022/05/30 11:47:07;;;;;;;2.70;1.52;;;13.30;99.90;;;;;;5075073;28;20423;-82
2022/05/30 11:49:44;;;;;;;1.40;0.40;;;13.40;99.90;;;;;;5074202;28;20114;-82
2022/05/30 11:52:15;;;;;;;2.72;0.70;;;13.40;99.90;;;;;;5075279;28;20036;-81
2022/05/30 11:54:52;;;;;;;4.50;1.05;;;13.40;99.90;;;;;;5074059;28;20361;-81
2022/05/30 11:57:40;;;;;;;4.05;0.90;;;13.50;99.90;;;;;;5073978;28;20057;-81
2022/05/30 12:00:36;;;;;;;3.28;1.10;;;13.60;99.90;;;;;;5066687;28;20552;-81
2022/05/30 12:03:40;;;;;;;2.28;0.43;;;13.50;99.90;;;;;;5069550;28;20055;-79
2022/05/30 12:06:09;;;;;;;2.08;0.60;;;13.50;99.90;;;;;;5076585;28;20048;-79
2022/05/30 12:08:55;;;;;;;3.85;1.15;;;13.50;99.90;;;;;;5074489;28;20060;-80
2022/05/30 12:11:54;;;;;;;1.35;0.75;;;13.40;99.90;;;;;;5031920;28;20080;-79
2022/05/30 12:14:47;;;;;;;3.83;0.90;;;13.30;99.90;;;;;;5059510;28;20044;-80
2022/05/30 12:17:38;;;;;;;8.93;1.20;;;13.20;99.90;;;;;;5072023;28;20053;-79
2022/05/30 12:23:48;;;;;;;4.00;0.90;;;12.80;99.90;;;;;;5074297;28;20511;-80
2022/05/30 12:26:13;;;;;;;4.60;1.00;;;12.70;99.90;;;;;;5076158;28;20503;-80
2022/05/30 12:28:42;;;;;;;5.90;1.02;;;12.60;99.90;;;;;;5072465;28;20083;-81
2022/05/30 12:31:08;;;;;;;7.03;1.00;;;12.60;99.90;;;;;;5079650;28;20045;-80
2022/05/30 12:33:34;;;;;;;8.93;1.35;;;12.70;99.90;;;;;;5082824;28;20070;-80
2022/05/30 12:36:09;;;;;;;5.20;0.85;;;12.70;99.90;;;;;;5087787;28;20079;-80
2022/05/30 12:38:54;;;;;;;;;;;12.80;99.90;;;;;;5073101;28;20036;-80
2022/05/30 12:41:25;;;;;;;5.93;0.95;;;12.80;99.90;;;;;;5057439;28;19966;-80
2022/05/30 12:43:52;;;;;;;2.35;0.68;;;12.80;99.90;;;;;;5072752;28;20134;-80
2022/05/30 12:46:22;;;;;;;4.18;0.93;;;12.80;99.90;;;;;;5071545;28;20037;-80
2022/05/30 12:48:52;;;;;;;3.10;0.70;;;12.80;99.90;;;;;;5072463;28;20483;-80
2022/05/30 12:51:39;;;;;;;3.63;1.00;;;12.80;99.90;;;;;;5085185;28;20414;-80
2022/05/30 12:54:07;;;;;;;3.60;1.27;;;12.80;99.90;;;;;;5073155;28;20037;-80
2022/05/30 12:56:39;;;;;;;2.30;0.85;;;12.70;99.90;;;;;;5062337;28;20500;-80
2022/05/30 12:59:33;;;;;;;4.40;0.90;;;12.70;99.90;;;;;;5051499;28;20049;-79
2022/05/30 13:02:02;;;;;;;3.70;0.80;;;12.70;99.90;;;;;;5068338;28;20048;-80
2022/05/30 13:04:35;;;;;;;3.30;0.80;;;12.70;99.90;;;;;;5073418;28;20044;-80
2022/05/30 13:07:04;;;;;;;1.40;0.88;;;12.70;99.90;;;;;;5066611;28;20102;-80
2022/05/30 13:09:36;;;;;;;3.00;1.02;;;12.70;99.90;;;;;;5102750;28;20078;-80
2022/05/30 13:12:11;;;;;;;2.13;0.77;;;12.70;99.90;;;;;;5072559;28;20044;-80
2022/05/30 13:14:36;;;;;;;2.22;0.60;;;12.70;99.90;;;;;;5088696;28;20420;-80
2022/05/30 13:17:23;;;;;;;4.05;1.10;;;12.60;99.90;;;;;;5072062;28;20036;-80
2022/05/30 13:19:58;;;;;;;2.05;0.63;;;12.60;99.90;;;;;;5053947;28;20048;-80
2022/05/30 13:22:32;;;;;;;3.33;0.63;;;12.60;99.90;;;;;;5057769;28;20039;-80
2022/05/30 13:24:59;;;;;;;4.07;0.80;;;12.50;99.90;;;;;;5075216;28;20454;-79
2022/05/30 13:27:29;;;;;;;2.78;0.73;;;12.50;99.90;;;;;;5073630;28;20472;-79
2022/05/30 13:30:00;;;;;;;5.53;0.80;;;12.40;99.90;;;;;;5052213;28;20048;-80
2022/05/30 13:32:28;;;;;;;2.67;0.73;;;12.40;99.90;;;;;;5052489;28;20114;-80